CYU weather

Cuyo Airport
Cuyo, Palawan Province, Philippines

Public forecast

Using degrees Celsius for public forecast. Weather courtesy of forecast.io.

METAR (pilot weather report)

Report is more than 6 hours old.

Closest report is Kalibo International Airport, 91.4 nm (169.3 km) ENE. Retrieved 2019/02/20 08:00 UTC (27 days ago):

RPVK 200800Z 04008KT 010V090 9999 FEW020 29/19 Q1015 NOSIG RMK A2997

TAF (pilot weather forecast)

Forecast is more than 12 hours old.

Closest forecast is Kalibo International Airport, 91.4 nm (169.3 km) ENE. Retrieved 2019/03/18 12:52 UTC (1 day ago):

TAF RPVK 181100Z 1812/1912 08008KT 9999 FEW016 BKN070 TEMPO 1812/1818 -SHRA SCT016 BKN070 OVC220